sensor_id;sensor_type;location;lat;lon;timestamp;P1;durP1;ratioP1;P2;durP2;ratioP2
2680;SDS011;1350;42.134;24.708;2023-04-03T00:02:00;5.85;;;2.20;;
2680;SDS011;1350;42.134;24.708;2023-04-03T00:04:27;7.30;;;2.28;;
2680;SDS011;1350;42.134;24.708;2023-04-03T00:06:55;7.20;;;2.28;;
2680;SDS011;1350;42.134;24.708;2023-04-03T00:09:21;7.38;;;2.67;;
2680;SDS011;1350;42.134;24.708;2023-04-03T00:11:48;7.13;;;3.10;;
2680;SDS011;1350;42.134;24.708;2023-04-03T00:14:16;5.60;;;2.28;;
2680;SDS011;1350;42.134;24.708;2023-04-03T00:16:43;5.60;;;2.08;;
2680;SDS011;1350;42.134;24.708;2023-04-03T00:19:10;6.28;;;3.00;;
2680;SDS011;1350;42.134;24.708;2023-04-03T00:21:38;6.75;;;2.40;;
2680;SDS011;1350;42.134;24.708;2023-04-03T00:24:05;5.32;;;2.30;;
2680;SDS011;1350;42.134;24.708;2023-04-03T00:26:32;6.93;;;2.42;;
2680;SDS011;1350;42.134;24.708;2023-04-03T00:28:59;7.07;;;2.90;;
2680;SDS011;1350;42.134;24.708;2023-04-03T00:31:27;6.05;;;2.70;;
2680;SDS011;1350;42.134;24.708;2023-04-03T00:33:54;5.05;;;2.05;;
2680;SDS011;1350;42.134;24.708;2023-04-03T00:36:20;5.90;;;2.50;;
2680;SDS011;1350;42.134;24.708;2023-04-03T00:38:47;7.00;;;2.88;;
2680;SDS011;1350;42.134;24.708;2023-04-03T00:41:14;5.50;;;2.40;;
2680;SDS011;1350;42.134;24.708;2023-04-03T00:43:41;7.68;;;2.40;;
2680;SDS011;1350;42.134;24.708;2023-04-03T00:46:07;7.43;;;2.80;;
2680;SDS011;1350;42.134;24.708;2023-04-03T00:48:37;5.70;;;2.72;;
2680;SDS011;1350;42.134;24.708;2023-04-03T00:51:07;7.60;;;2.55;;
2680;SDS011;1350;42.134;24.708;2023-04-03T00:53:39;4.60;;;2.03;;
2680;SDS011;1350;42.134;24.708;2023-04-03T00:56:10;5.30;;;2.13;;
2680;SDS011;1350;42.134;24.708;2023-04-03T00:58:42;6.18;;;2.50;;
2680;SDS011;1350;42.134;24.708;2023-04-03T01:01:12;4.78;;;1.90;;
2680;SDS011;1350;42.134;24.708;2023-04-03T01:03:43;6.60;;;3.00;;
2680;SDS011;1350;42.134;24.708;2023-04-03T01:06:10;6.35;;;2.53;;
2680;SDS011;1350;42.134;24.708;2023-04-03T01:08:37;8.10;;;2.60;;
2680;SDS011;1350;42.134;24.708;2023-04-03T01:11:05;8.15;;;2.42;;
2680;SDS011;1350;42.134;24.708;2023-04-03T01:13:32;5.50;;;2.20;;
2680;SDS011;1350;42.134;24.708;2023-04-03T01:16:00;6.93;;;2.63;;
2680;SDS011;1350;42.134;24.708;2023-04-03T01:18:28;6.53;;;2.33;;
2680;SDS011;1350;42.134;24.708;2023-04-03T01:23:59;5.85;;;2.35;;
2680;SDS011;1350;42.134;24.708;2023-04-03T01:26:38;6.00;;;2.55;;
2680;SDS011;1350;42.134;24.708;2023-04-03T01:29:05;5.30;;;2.50;;
2680;SDS011;1350;42.134;24.708;2023-04-03T01:31:41;5.82;;;2.22;;
2680;SDS011;1350;42.134;24.708;2023-04-03T01:34:11;5.30;;;2.42;;
2680;SDS011;1350;42.134;24.708;2023-04-03T01:36:38;4.90;;;2.10;;
2680;SDS011;1350;42.134;24.708;2023-04-03T01:39:05;5.55;;;2.75;;
2680;SDS011;1350;42.134;24.708;2023-04-03T01:41:32;5.03;;;1.90;;
2680;SDS011;1350;42.134;24.708;2023-04-03T01:43:58;5.95;;;2.10;;
2680;SDS011;1350;42.134;24.708;2023-04-03T01:46:25;5.90;;;2.40;;
2680;SDS011;1350;42.134;24.708;2023-04-03T01:48:53;5.43;;;2.33;;
2680;SDS011;1350;42.134;24.708;2023-04-03T01:51:20;5.35;;;2.13;;
2680;SDS011;1350;42.134;24.708;2023-04-03T01:53:47;4.93;;;2.47;;
2680;SDS011;1350;42.134;24.708;2023-04-03T01:56:14;7.20;;;2.90;;
2680;SDS011;1350;42.134;24.708;2023-04-03T01:58:41;5.95;;;2.25;;
2680;SDS011;1350;42.134;24.708;2023-04-03T02:01:08;5.05;;;2.40;;
2680;SDS011;1350;42.134;24.708;2023-04-03T02:03:35;11.27;;;3.50;;
2680;SDS011;1350;42.134;24.708;2023-04-03T02:06:04;6.10;;;2.70;;
2680;SDS011;1350;42.134;24.708;2023-04-03T02:08:31;5.00;;;2.40;;
2680;SDS011;1350;42.134;24.708;2023-04-03T02:10:58;6.90;;;3.33;;
2680;SDS011;1350;42.134;24.708;2023-04-03T02:13:25;5.70;;;2.65;;
2680;SDS011;1350;42.134;24.708;2023-04-03T02:15:52;5.93;;;2.88;;
2680;SDS011;1350;42.134;24.708;2023-04-03T02:18:19;6.28;;;3.15;;
2680;SDS011;1350;42.134;24.708;2023-04-03T02:20:46;7.65;;;2.83;;
2680;SDS011;1350;42.134;24.708;2023-04-03T02:23:14;8.60;;;4.00;;
2680;SDS011;1350;42.134;24.708;2023-04-03T02:25:41;6.40;;;3.40;;
2680;SDS011;1350;42.134;24.708;2023-04-03T02:28:07;7.05;;;3.40;;
2680;SDS011;1350;42.134;24.708;2023-04-03T02:30:34;7.57;;;3.55;;
2680;SDS011;1350;42.134;24.708;2023-04-03T02:33:01;11.93;;;4.47;;
2680;SDS011;1350;42.134;24.708;2023-04-03T02:35:28;10.25;;;3.70;;
2680;SDS011;1350;42.134;24.708;2023-04-03T02:37:55;6.85;;;2.92;;
2680;SDS011;1350;42.134;24.708;2023-04-03T02:40:23;6.32;;;3.05;;
2680;SDS011;1350;42.134;24.708;2023-04-03T02:42:50;6.80;;;3.20;;
2680;SDS011;1350;42.134;24.708;2023-04-03T02:45:17;6.90;;;3.65;;
2680;SDS011;1350;42.134;24.708;2023-04-03T02:47:43;6.65;;;2.70;;
2680;SDS011;1350;42.134;24.708;2023-04-03T02:50:10;7.93;;;3.60;;
2680;SDS011;1350;42.134;24.708;2023-04-03T02:52:39;7.40;;;4.15;;
2680;SDS011;1350;42.134;24.708;2023-04-03T02:55:06;6.82;;;3.33;;
2680;SDS011;1350;42.134;24.708;2023-04-03T02:57:35;7.57;;;4.13;;
2680;SDS011;1350;42.134;24.708;2023-04-03T03:00:02;6.75;;;3.50;;
2680;SDS011;1350;42.134;24.708;2023-04-03T03:02:29;6.60;;;3.90;;
2680;SDS011;1350;42.134;24.708;2023-04-03T03:04:56;9.05;;;4.40;;
2680;SDS011;1350;42.134;24.708;2023-04-03T03:07:22;9.68;;;4.40;;
2680;SDS011;1350;42.134;24.708;2023-04-03T03:09:49;8.10;;;4.60;;
2680;SDS011;1350;42.134;24.708;2023-04-03T03:12:16;9.63;;;4.35;;
2680;SDS011;1350;42.134;24.708;2023-04-03T03:14:48;8.68;;;4.15;;
2680;SDS011;1350;42.134;24.708;2023-04-03T03:17:14;10.60;;;4.97;;
2680;SDS011;1350;42.134;24.708;2023-04-03T03:19:42;12.82;;;5.60;;
2680;SDS011;1350;42.134;24.708;2023-04-03T03:22:08;10.68;;;6.68;;
2680;SDS011;1350;42.134;24.708;2023-04-03T03:24:35;13.93;;;6.90;;
2680;SDS011;1350;42.134;24.708;2023-04-03T03:27:02;16.25;;;7.35;;
2680;SDS011;1350;42.134;24.708;2023-04-03T03:29:28;14.18;;;8.52;;
2680;SDS011;1350;42.134;24.708;2023-04-03T03:31:57;11.98;;;6.72;;
2680;SDS011;1350;42.134;24.708;2023-04-03T03:34:23;16.25;;;7.88;;
2680;SDS011;1350;42.134;24.708;2023-04-03T03:36:50;16.98;;;7.38;;
2680;SDS011;1350;42.134;24.708;2023-04-03T03:39:17;8.98;;;5.78;;
2680;SDS011;1350;42.134;24.708;2023-04-03T03:41:43;10.02;;;6.40;;
2680;SDS011;1350;42.134;24.708;2023-04-03T03:44:10;10.52;;;5.60;;
2680;SDS011;1350;42.134;24.708;2023-04-03T03:46:37;13.77;;;8.43;;
2680;SDS011;1350;42.134;24.708;2023-04-03T03:49:05;11.82;;;6.03;;
2680;SDS011;1350;42.134;24.708;2023-04-03T03:51:32;11.65;;;6.25;;
2680;SDS011;1350;42.134;24.708;2023-04-03T03:53:59;14.43;;;6.40;;
2680;SDS011;1350;42.134;24.708;2023-04-03T03:56:26;10.57;;;4.97;;
2680;SDS011;1350;42.134;24.708;2023-04-03T03:58:52;20.08;;;7.88;;
2680;SDS011;1350;42.134;24.708;2023-04-03T04:01:21;23.17;;;13.43;;
2680;SDS011;1350;42.134;24.708;2023-04-03T04:03:48;24.67;;;14.85;;
2680;SDS011;1350;42.134;24.708;2023-04-03T04:06:16;43.88;;;15.23;;
2680;SDS011;1350;42.134;24.708;2023-04-03T04:08:43;32.67;;;16.92;;
2680;SDS011;1350;42.134;24.708;2023-04-03T04:11:09;17.27;;;12.90;;
2680;SDS011;1350;42.134;24.708;2023-04-03T04:13:36;25.27;;;14.77;;
2680;SDS011;1350;42.134;24.708;2023-04-03T04:16:03;17.60;;;9.82;;
2680;SDS011;1350;42.134;24.708;2023-04-03T04:18:30;14.10;;;8.15;;
2680;SDS011;1350;42.134;24.708;2023-04-03T04:20:57;20.55;;;12.85;;
2680;SDS011;1350;42.134;24.708;2023-04-03T04:23:25;21.58;;;10.55;;
2680;SDS011;1350;42.134;24.708;2023-04-03T04:25:52;13.45;;;6.85;;
2680;SDS011;1350;42.134;24.708;2023-04-03T04:28:19;13.95;;;6.88;;
2680;SDS011;1350;42.134;24.708;2023-04-03T04:30:45;9.30;;;5.60;;
2680;SDS011;1350;42.134;24.708;2023-04-03T04:33:12;10.30;;;4.88;;
2680;SDS011;1350;42.134;24.708;2023-04-03T04:35:41;16.45;;;6.35;;
2680;SDS011;1350;42.134;24.708;2023-04-03T04:38:08;14.45;;;5.70;;
2680;SDS011;1350;42.134;24.708;2023-04-03T04:40:36;11.40;;;5.10;;
2680;SDS011;1350;42.134;24.708;2023-04-03T04:43:03;11.00;;;5.25;;
2680;SDS011;1350;42.134;24.708;2023-04-03T04:45:29;12.07;;;6.15;;
2680;SDS011;1350;42.134;24.708;2023-04-03T04:47:59;10.50;;;6.57;;
2680;SDS011;1350;42.134;24.708;2023-04-03T04:50:26;11.02;;;6.65;;
2680;SDS011;1350;42.134;24.708;2023-04-03T04:52:53;15.70;;;8.45;;
2680;SDS011;1350;42.134;24.708;2023-04-03T04:55:19;18.30;;;7.80;;
2680;SDS011;1350;42.134;24.708;2023-04-03T04:57:47;16.80;;;8.60;;
2680;SDS011;1350;42.134;24.708;2023-04-03T05:00:14;14.95;;;6.82;;
2680;SDS011;1350;42.134;24.708;2023-04-03T05:02:42;19.42;;;7.60;;
2680;SDS011;1350;42.134;24.708;2023-04-03T05:05:09;23.25;;;8.85;;
2680;SDS011;1350;42.134;24.708;2023-04-03T05:07:36;13.45;;;7.70;;
2680;SDS011;1350;42.134;24.708;2023-04-03T05:10:03;19.00;;;7.90;;
2680;SDS011;1350;42.134;24.708;2023-04-03T05:12:31;21.67;;;7.97;;
2680;SDS011;1350;42.134;24.708;2023-04-03T05:14:59;16.83;;;7.10;;
2680;SDS011;1350;42.134;24.708;2023-04-03T05:17:26;14.68;;;6.43;;
2680;SDS011;1350;42.134;24.708;2023-04-03T05:19:52;14.23;;;8.05;;
2680;SDS011;1350;42.134;24.708;2023-04-03T05:22:19;12.85;;;7.50;;
2680;SDS011;1350;42.134;24.708;2023-04-03T05:24:46;13.85;;;8.80;;
2680;SDS011;1350;42.134;24.708;2023-04-03T05:27:13;14.88;;;9.55;;
2680;SDS011;1350;42.134;24.708;2023-04-03T05:29:39;13.32;;;8.30;;
2680;SDS011;1350;42.134;24.708;2023-04-03T05:32:10;21.23;;;7.95;;
2680;SDS011;1350;42.134;24.708;2023-04-03T05:34:39;18.52;;;7.80;;
2680;SDS011;1350;42.134;24.708;2023-04-03T05:37:06;22.10;;;8.30;;
2680;SDS011;1350;42.134;24.708;2023-04-03T05:39:33;11.80;;;6.60;;
2680;SDS011;1350;42.134;24.708;2023-04-03T05:42:00;12.85;;;6.65;;
2680;SDS011;1350;42.134;24.708;2023-04-03T05:44:26;12.15;;;6.07;;
2680;SDS011;1350;42.134;24.708;2023-04-03T05:46:53;13.30;;;7.05;;
2680;SDS011;1350;42.134;24.708;2023-04-03T05:49:21;9.70;;;6.00;;
2680;SDS011;1350;42.134;24.708;2023-04-03T05:51:51;10.32;;;5.68;;
2680;SDS011;1350;42.134;24.708;2023-04-03T05:54:19;18.88;;;6.10;;
2680;SDS011;1350;42.134;24.708;2023-04-03T05:56:48;13.23;;;6.78;;
2680;SDS011;1350;42.134;24.708;2023-04-03T05:59:14;17.60;;;7.60;;
2680;SDS011;1350;42.134;24.708;2023-04-03T06:01:41;14.07;;;6.10;;
2680;SDS011;1350;42.134;24.708;2023-04-03T06:04:08;19.38;;;6.55;;
2680;SDS011;1350;42.134;24.708;2023-04-03T06:06:47;23.45;;;8.23;;
2680;SDS011;1350;42.134;24.708;2023-04-03T06:09:16;23.30;;;7.00;;
2680;SDS011;1350;42.134;24.708;2023-04-03T06:11:44;12.93;;;7.10;;
2680;SDS011;1350;42.134;24.708;2023-04-03T06:14:11;24.48;;;7.05;;
2680;SDS011;1350;42.134;24.708;2023-04-03T06:16:38;25.20;;;7.05;;
2680;SDS011;1350;42.134;24.708;2023-04-03T06:19:05;15.77;;;6.55;;
2680;SDS011;1350;42.134;24.708;2023-04-03T06:21:32;12.63;;;6.50;;
2680;SDS011;1350;42.134;24.708;2023-04-03T06:24:02;29.70;;;7.10;;
2680;SDS011;1350;42.134;24.708;2023-04-03T06:26:29;14.00;;;6.90;;
2680;SDS011;1350;42.134;24.708;2023-04-03T06:28:56;13.85;;;5.13;;
2680;SDS011;1350;42.134;24.708;2023-04-03T06:31:22;10.80;;;5.22;;
2680;SDS011;1350;42.134;24.708;2023-04-03T06:33:49;8.35;;;5.78;;
2680;SDS011;1350;42.134;24.708;2023-04-03T06:36:17;13.95;;;4.97;;
2680;SDS011;1350;42.134;24.708;2023-04-03T06:38:46;13.40;;;6.80;;
2680;SDS011;1350;42.134;24.708;2023-04-03T06:41:14;15.30;;;7.35;;
2680;SDS011;1350;42.134;24.708;2023-04-03T06:43:42;35.50;;;8.45;;
2680;SDS011;1350;42.134;24.708;2023-04-03T06:46:12;18.58;;;7.13;;
2680;SDS011;1350;42.134;24.708;2023-04-03T06:48:40;11.27;;;6.47;;
2680;SDS011;1350;42.134;24.708;2023-04-03T06:51:17;14.63;;;6.30;;
2680;SDS011;1350;42.134;24.708;2023-04-03T06:53:45;12.57;;;5.95;;
2680;SDS011;1350;42.134;24.708;2023-04-03T06:56:12;12.30;;;5.75;;
2680;SDS011;1350;42.134;24.708;2023-04-03T06:58:41;10.25;;;6.82;;
2680;SDS011;1350;42.134;24.708;2023-04-03T07:01:08;13.05;;;6.18;;
2680;SDS011;1350;42.134;24.708;2023-04-03T07:03:36;13.98;;;6.13;;
2680;SDS011;1350;42.134;24.708;2023-04-03T07:06:03;20.88;;;7.65;;
2680;SDS011;1350;42.134;24.708;2023-04-03T07:08:30;12.25;;;6.05;;
2680;SDS011;1350;42.134;24.708;2023-04-03T07:10:58;17.77;;;7.05;;
2680;SDS011;1350;42.134;24.708;2023-04-03T07:13:26;22.45;;;8.43;;
2680;SDS011;1350;42.134;24.708;2023-04-03T07:15:53;14.52;;;7.55;;
2680;SDS011;1350;42.134;24.708;2023-04-03T07:18:20;17.42;;;7.78;;
2680;SDS011;1350;42.134;24.708;2023-04-03T07:20:47;14.70;;;6.82;;
2680;SDS011;1350;42.134;24.708;2023-04-03T07:23:14;13.40;;;5.87;;
2680;SDS011;1350;42.134;24.708;2023-04-03T07:25:42;11.57;;;4.93;;
2680;SDS011;1350;42.134;24.708;2023-04-03T07:28:10;13.00;;;4.10;;
2680;SDS011;1350;42.134;24.708;2023-04-03T07:30:43;7.93;;;4.20;;
2680;SDS011;1350;42.134;24.708;2023-04-03T07:33:10;32.27;;;19.63;;
2680;SDS011;1350;42.134;24.708;2023-04-03T07:35:37;26.67;;;8.57;;
2680;SDS011;1350;42.134;24.708;2023-04-03T07:38:04;10.98;;;4.78;;
2680;SDS011;1350;42.134;24.708;2023-04-03T07:40:31;12.63;;;4.67;;
2680;SDS011;1350;42.134;24.708;2023-04-03T07:42:58;22.23;;;5.35;;
2680;SDS011;1350;42.134;24.708;2023-04-03T07:45:27;15.73;;;5.68;;
2680;SDS011;1350;42.134;24.708;2023-04-03T07:47:55;47.03;;;11.50;;
2680;SDS011;1350;42.134;24.708;2023-04-03T07:50:22;13.97;;;6.63;;
2680;SDS011;1350;42.134;24.708;2023-04-03T07:52:49;9.27;;;4.93;;
2680;SDS011;1350;42.134;24.708;2023-04-03T07:55:23;10.00;;;5.60;;
2680;SDS011;1350;42.134;24.708;2023-04-03T07:57:52;12.20;;;4.27;;
2680;SDS011;1350;42.134;24.708;2023-04-03T08:00:26;8.73;;;4.97;;
2680;SDS011;1350;42.134;24.708;2023-04-03T08:02:53;19.63;;;5.33;;
2680;SDS011;1350;42.134;24.708;2023-04-03T08:05:23;14.33;;;5.47;;
2680;SDS011;1350;42.134;24.708;2023-04-03T08:07:50;10.90;;;3.93;;
2680;SDS011;1350;42.134;24.708;2023-04-03T08:10:17;12.87;;;5.10;;
2680;SDS011;1350;42.134;24.708;2023-04-03T08:12:45;10.17;;;3.63;;
2680;SDS011;1350;42.134;24.708;2023-04-03T08:15:12;6.83;;;4.03;;
2680;SDS011;1350;42.134;24.708;2023-04-03T08:17:39;7.43;;;3.80;;
2680;SDS011;1350;42.134;24.708;2023-04-03T08:20:06;13.50;;;6.83;;
2680;SDS011;1350;42.134;24.708;2023-04-03T08:22:35;9.60;;;5.23;;
2680;SDS011;1350;42.134;24.708;2023-04-03T08:25:02;9.80;;;4.27;;
2680;SDS011;1350;42.134;24.708;2023-04-03T08:27:29;9.63;;;4.40;;
2680;SDS011;1350;42.134;24.708;2023-04-03T08:29:56;10.60;;;4.83;;
2680;SDS011;1350;42.134;24.708;2023-04-03T08:32:23;12.13;;;5.10;;
2680;SDS011;1350;42.134;24.708;2023-04-03T08:34:50;13.60;;;5.67;;
2680;SDS011;1350;42.134;24.708;2023-04-03T08:37:16;19.13;;;7.20;;
2680;SDS011;1350;42.134;24.708;2023-04-03T08:39:45;11.30;;;6.40;;
2680;SDS011;1350;42.134;24.708;2023-04-03T08:42:14;9.80;;;5.00;;
2680;SDS011;1350;42.134;24.708;2023-04-03T08:44:46;9.77;;;5.20;;
2680;SDS011;1350;42.134;24.708;2023-04-03T08:47:20;11.80;;;5.30;;
2680;SDS011;1350;42.134;24.708;2023-04-03T08:49:51;8.77;;;5.83;;
2680;SDS011;1350;42.134;24.708;2023-04-03T08:52:22;18.17;;;7.20;;
2680;SDS011;1350;42.134;24.708;2023-04-03T08:54:59;14.82;;;7.15;;
2680;SDS011;1350;42.134;24.708;2023-04-03T08:57:29;10.57;;;5.63;;
2680;SDS011;1350;42.134;24.708;2023-04-03T09:00:00;12.30;;;7.87;;
2680;SDS011;1350;42.134;24.708;2023-04-03T09:02:31;17.30;;;7.22;;
2680;SDS011;1350;42.134;24.708;2023-04-03T09:05:01;21.25;;;7.70;;
2680;SDS011;1350;42.134;24.708;2023-04-03T09:07:36;11.00;;;7.23;;
2680;SDS011;1350;42.134;24.708;2023-04-03T09:10:10;15.30;;;6.83;;
2680;SDS011;1350;42.134;24.708;2023-04-03T09:12:39;10.83;;;6.13;;
2680;SDS011;1350;42.134;24.708;2023-04-03T09:15:15;12.57;;;7.47;;
2680;SDS011;1350;42.134;24.708;2023-04-03T09:17:47;15.32;;;6.95;;
2680;SDS011;1350;42.134;24.708;2023-04-03T09:20:24;17.92;;;7.68;;
2680;SDS011;1350;42.134;24.708;2023-04-03T09:22:57;10.80;;;7.82;;
2680;SDS011;1350;42.134;24.708;2023-04-03T09:25:27;14.60;;;7.20;;
2680;SDS011;1350;42.134;24.708;2023-04-03T09:27:58;11.00;;;6.47;;
2680;SDS011;1350;42.134;24.708;2023-04-03T09:30:26;14.65;;;7.60;;
2680;SDS011;1350;42.134;24.708;2023-04-03T09:32:54;12.32;;;6.93;;
2680;SDS011;1350;42.134;24.708;2023-04-03T09:35:23;18.35;;;6.80;;
2680;SDS011;1350;42.134;24.708;2023-04-03T09:37:52;16.00;;;6.90;;
2680;SDS011;1350;42.134;24.708;2023-04-03T09:40:35;14.32;;;5.45;;
2680;SDS011;1350;42.134;24.708;2023-04-03T09:43:21;18.63;;;6.68;;
2680;SDS011;1350;42.134;24.708;2023-04-03T09:45:52;11.48;;;5.20;;
2680;SDS011;1350;42.134;24.708;2023-04-03T09:48:20;9.23;;;4.80;;
2680;SDS011;1350;42.134;24.708;2023-04-03T09:50:58;7.43;;;4.28;;
2680;SDS011;1350;42.134;24.708;2023-04-03T09:53:36;7.53;;;4.25;;
2680;SDS011;1350;42.134;24.708;2023-04-03T09:56:18;13.95;;;4.35;;
2680;SDS011;1350;42.134;24.708;2023-04-03T09:58:48;13.27;;;4.80;;
2680;SDS011;1350;42.134;24.708;2023-04-03T10:01:27;11.60;;;4.30;;
2680;SDS011;1350;42.134;24.708;2023-04-03T10:04:06;8.95;;;4.13;;
2680;SDS011;1350;42.134;24.708;2023-04-03T10:06:36;12.55;;;4.30;;
2680;SDS011;1350;42.134;24.708;2023-04-03T10:09:10;11.32;;;4.05;;
2680;SDS011;1350;42.134;24.708;2023-04-03T10:11:56;12.38;;;5.35;;
2680;SDS011;1350;42.134;24.708;2023-04-03T10:14:26;10.93;;;4.88;;
2680;SDS011;1350;42.134;24.708;2023-04-03T10:16:56;7.97;;;4.50;;
2680;SDS011;1350;42.134;24.708;2023-04-03T10:19:33;8.88;;;4.85;;
2680;SDS011;1350;42.134;24.708;2023-04-03T10:22:04;7.70;;;3.90;;
2680;SDS011;1350;42.134;24.708;2023-04-03T10:24:42;7.50;;;3.90;;
2680;SDS011;1350;42.134;24.708;2023-04-03T10:27:17;7.05;;;3.60;;
2680;SDS011;1350;42.134;24.708;2023-04-03T10:29:54;9.05;;;4.05;;
2680;SDS011;1350;42.134;24.708;2023-04-03T10:32:29;9.10;;;3.50;;
2680;SDS011;1350;42.134;24.708;2023-04-03T10:35:10;9.32;;;3.83;;
2680;SDS011;1350;42.134;24.708;2023-04-03T10:37:48;9.77;;;4.38;;
2680;SDS011;1350;42.134;24.708;2023-04-03T10:40:27;8.32;;;4.80;;
2680;SDS011;1350;42.134;24.708;2023-04-03T10:43:00;15.32;;;6.10;;
2680;SDS011;1350;42.134;24.708;2023-04-03T10:45:37;11.02;;;5.00;;
2680;SDS011;1350;42.134;24.708;2023-04-03T10:48:16;10.88;;;5.18;;
2680;SDS011;1350;42.134;24.708;2023-04-03T10:50:53;10.57;;;5.50;;
2680;SDS011;1350;42.134;24.708;2023-04-03T10:53:29;8.48;;;5.15;;
2680;SDS011;1350;42.134;24.708;2023-04-03T10:56:02;8.35;;;4.20;;
2680;SDS011;1350;42.134;24.708;2023-04-03T10:58:36;10.95;;;5.38;;
2680;SDS011;1350;42.134;24.708;2023-04-03T11:01:07;9.32;;;5.53;;
2680;SDS011;1350;42.134;24.708;2023-04-03T11:03:36;10.52;;;6.55;;
2680;SDS011;1350;42.134;24.708;2023-04-03T11:06:07;9.80;;;5.90;;
2680;SDS011;1350;42.134;24.708;2023-04-03T11:08:37;12.02;;;6.10;;
2680;SDS011;1350;42.134;24.708;2023-04-03T11:11:11;8.93;;;4.65;;
2680;SDS011;1350;42.134;24.708;2023-04-03T11:13:45;12.05;;;5.80;;
2680;SDS011;1350;42.134;24.708;2023-04-03T11:16:18;10.73;;;5.68;;
2680;SDS011;1350;42.134;24.708;2023-04-03T11:18:49;9.60;;;5.60;;
2680;SDS011;1350;42.134;24.708;2023-04-03T11:21:21;13.55;;;7.93;;
2680;SDS011;1350;42.134;24.708;2023-04-03T11:23:56;13.23;;;6.35;;
2680;SDS011;1350;42.134;24.708;2023-04-03T11:26:24;10.73;;;6.30;;
2680;SDS011;1350;42.134;24.708;2023-04-03T11:28:56;9.48;;;5.93;;
2680;SDS011;1350;42.134;24.708;2023-04-03T11:31:33;9.70;;;5.90;;
2680;SDS011;1350;42.134;24.708;2023-04-03T11:34:15;16.25;;;8.38;;
2680;SDS011;1350;42.134;24.708;2023-04-03T11:36:53;11.60;;;7.43;;
2680;SDS011;1350;42.134;24.708;2023-04-03T11:39:25;10.55;;;6.40;;
2680;SDS011;1350;42.134;24.708;2023-04-03T11:41:54;10.43;;;6.35;;
2680;SDS011;1350;42.134;24.708;2023-04-03T11:44:30;9.38;;;5.70;;
2680;SDS011;1350;42.134;24.708;2023-04-03T11:47:02;8.75;;;5.70;;
2680;SDS011;1350;42.134;24.708;2023-04-03T11:58:19;15.27;;;9.32;;
2680;SDS011;1350;42.134;24.708;2023-04-03T12:00:56;9.52;;;5.63;;
2680;SDS011;1350;42.134;24.708;2023-04-03T12:09:34;11.55;;;6.30;;
2680;SDS011;1350;42.134;24.708;2023-04-03T12:12:38;10.13;;;6.22;;
2680;SDS011;1350;42.134;24.708;2023-04-03T12:15:19;9.80;;;6.47;;
2680;SDS011;1350;42.134;24.708;2023-04-03T12:17:51;11.60;;;7.25;;
2680;SDS011;1350;42.134;24.708;2023-04-03T12:23:29;11.45;;;7.57;;
2680;SDS011;1350;42.134;24.708;2023-04-03T12:28:48;12.25;;;9.07;;
2680;SDS011;1350;42.134;24.708;2023-04-03T12:31:17;10.45;;;7.68;;
2680;SDS011;1350;42.134;24.708;2023-04-03T12:36:38;14.02;;;9.40;;
2680;SDS011;1350;42.134;24.708;2023-04-03T12:39:25;13.02;;;9.15;;
2680;SDS011;1350;42.134;24.708;2023-04-03T12:42:17;12.10;;;9.57;;
2680;SDS011;1350;42.134;24.708;2023-04-03T12:44:54;59.28;;;41.10;;
2680;SDS011;1350;42.134;24.708;2023-04-03T12:47:28;11.90;;;9.43;;
2680;SDS011;1350;42.134;24.708;2023-04-03T12:50:02;13.90;;;9.50;;
2680;SDS011;1350;42.134;24.708;2023-04-03T12:52:33;12.15;;;8.57;;
2680;SDS011;1350;42.134;24.708;2023-04-03T12:55:14;13.20;;;9.80;;
2680;SDS011;1350;42.134;24.708;2023-04-03T12:57:42;14.32;;;9.63;;
2680;SDS011;1350;42.134;24.708;2023-04-03T13:00:19;13.70;;;8.45;;
2680;SDS011;1350;42.134;24.708;2023-04-03T13:02:48;10.70;;;7.63;;
2680;SDS011;1350;42.134;24.708;2023-04-03T13:05:17;12.30;;;8.38;;
2680;SDS011;1350;42.134;24.708;2023-04-03T13:07:48;14.70;;;8.18;;
2680;SDS011;1350;42.134;24.708;2023-04-03T13:10:16;11.40;;;8.98;;
2680;SDS011;1350;42.134;24.708;2023-04-03T13:12:45;10.68;;;7.50;;
2680;SDS011;1350;42.134;24.708;2023-04-03T13:15:14;12.02;;;9.05;;
2680;SDS011;1350;42.134;24.708;2023-04-03T13:17:43;10.48;;;7.95;;
2680;SDS011;1350;42.134;24.708;2023-04-03T13:20:11;10.82;;;7.88;;
2680;SDS011;1350;42.134;24.708;2023-04-03T13:22:45;9.75;;;8.00;;
2680;SDS011;1350;42.134;24.708;2023-04-03T13:25:20;10.88;;;8.80;;
2680;SDS011;1350;42.134;24.708;2023-04-03T13:27:49;10.38;;;7.65;;
2680;SDS011;1350;42.134;24.708;2023-04-03T13:30:27;12.40;;;8.10;;
2680;SDS011;1350;42.134;24.708;2023-04-03T13:32:55;13.02;;;8.77;;
2680;SDS011;1350;42.134;24.708;2023-04-03T13:35:34;15.90;;;10.43;;
2680;SDS011;1350;42.134;24.708;2023-04-03T13:38:06;11.07;;;8.05;;
2680;SDS011;1350;42.134;24.708;2023-04-03T13:40:48;9.70;;;8.10;;
2680;SDS011;1350;42.134;24.708;2023-04-03T13:43:20;13.70;;;10.10;;
2680;SDS011;1350;42.134;24.708;2023-04-03T13:45:54;11.68;;;8.98;;
2680;SDS011;1350;42.134;24.708;2023-04-03T13:48:24;12.35;;;9.35;;
2680;SDS011;1350;42.134;24.708;2023-04-03T13:50:52;15.40;;;10.20;;
2680;SDS011;1350;42.134;24.708;2023-04-03T13:53:24;13.57;;;10.75;;
2680;SDS011;1350;42.134;24.708;2023-04-03T13:55:53;15.80;;;10.90;;
2680;SDS011;1350;42.134;24.708;2023-04-03T13:58:26;15.02;;;11.50;;
2680;SDS011;1350;42.134;24.708;2023-04-03T14:00:55;15.88;;;10.90;;
2680;SDS011;1350;42.134;24.708;2023-04-03T14:03:27;14.63;;;12.35;;
2680;SDS011;1350;42.134;24.708;2023-04-03T14:05:56;13.95;;;12.13;;
2680;SDS011;1350;42.134;24.708;2023-04-03T14:08:24;16.63;;;13.48;;
2680;SDS011;1350;42.134;24.708;2023-04-03T14:10:52;20.00;;;14.15;;
2680;SDS011;1350;42.134;24.708;2023-04-03T14:13:20;17.02;;;13.23;;
2680;SDS011;1350;42.134;24.708;2023-04-03T14:15:47;18.83;;;14.05;;
2680;SDS011;1350;42.134;24.708;2023-04-03T14:18:16;21.20;;;14.05;;
2680;SDS011;1350;42.134;24.708;2023-04-03T14:20:45;20.10;;;13.63;;
2680;SDS011;1350;42.134;24.708;2023-04-03T14:23:13;18.95;;;13.32;;
2680;SDS011;1350;42.134;24.708;2023-04-03T14:25:41;19.77;;;13.70;;
2680;SDS011;1350;42.134;24.708;2023-04-03T14:28:16;17.38;;;13.68;;
2680;SDS011;1350;42.134;24.708;2023-04-03T14:30:43;19.42;;;12.77;;
2680;SDS011;1350;42.134;24.708;2023-04-03T14:33:13;16.25;;;13.27;;
2680;SDS011;1350;42.134;24.708;2023-04-03T14:35:41;20.33;;;14.10;;
2680;SDS011;1350;42.134;24.708;2023-04-03T14:38:20;17.58;;;14.35;;
2680;SDS011;1350;42.134;24.708;2023-04-03T14:40:50;18.33;;;14.10;;
2680;SDS011;1350;42.134;24.708;2023-04-03T14:43:18;17.55;;;13.80;;
2680;SDS011;1350;42.134;24.708;2023-04-03T14:45:45;22.27;;;14.45;;
2680;SDS011;1350;42.134;24.708;2023-04-03T14:48:15;14.63;;;13.15;;
2680;SDS011;1350;42.134;24.708;2023-04-03T14:50:45;18.42;;;14.55;;
2680;SDS011;1350;42.134;24.708;2023-04-03T14:53:12;23.95;;;14.18;;
2680;SDS011;1350;42.134;24.708;2023-04-03T14:55:40;18.88;;;14.15;;
2680;SDS011;1350;42.134;24.708;2023-04-03T14:58:10;23.30;;;16.23;;
2680;SDS011;1350;42.134;24.708;2023-04-03T15:00:40;22.00;;;16.60;;
2680;SDS011;1350;42.134;24.708;2023-04-03T15:03:09;20.58;;;16.02;;
2680;SDS011;1350;42.134;24.708;2023-04-03T15:05:39;22.20;;;14.85;;
2680;SDS011;1350;42.134;24.708;2023-04-03T15:08:08;21.85;;;15.20;;
2680;SDS011;1350;42.134;24.708;2023-04-03T15:10:45;24.52;;;17.30;;
2680;SDS011;1350;42.134;24.708;2023-04-03T15:13:13;20.52;;;16.50;;
2680;SDS011;1350;42.134;24.708;2023-04-03T15:15:41;21.05;;;15.25;;
2680;SDS011;1350;42.134;24.708;2023-04-03T15:18:10;19.08;;;15.90;;
2680;SDS011;1350;42.134;24.708;2023-04-03T15:20:41;17.38;;;15.55;;
2680;SDS011;1350;42.134;24.708;2023-04-03T15:23:09;19.88;;;15.30;;
2680;SDS011;1350;42.134;24.708;2023-04-03T15:25:39;23.52;;;17.70;;
2680;SDS011;1350;42.134;24.708;2023-04-03T15:28:06;19.23;;;14.27;;
2680;SDS011;1350;42.134;24.708;2023-04-03T15:30:37;19.95;;;16.05;;
2680;SDS011;1350;42.134;24.708;2023-04-03T15:33:09;24.10;;;16.30;;